X  Tanca Dades meteorològiques de l'aviació METAR     LEAL Alicante-Elche Miguel Hernández Airport
Temperatura
21°C Temperatura
18°C Rosada
83% Humitat



Vent
5 KM/H
3 MPH
1 M/S
3 NUS



310°
NO
Condicions actuals

Sense núvols Sense núvols
Pressió 1015.92 (hPa) - 30 (inHg)
Visibilitat 6 (milla) - 9.7 (km)
Aeroport
Codi aeroport LEAL

Ubicació: Alicante-Elche Miguel Hernández Airport
Distància: 14 (km)

Metar:
LEAL 262030Z 31003KT 280V060 CAVOK 21/18 Q1016 NOSIG

Temps: 26-05-2024 22:30 CEST